Terminal Aerodrome Forecast
Issued by NWS Sterling, VA

Current Version | Previous Version | Graphics & Text | Print | Product List | Glossary On
Versions: 1 2 3 4 5 6 7 8 9 10 11 12 13 14 15 16 17 18 19 20 21 22 23 24 25 26
000
FTUS41 KLWX 222320
TAFIAD
TAF
KIAD 222320Z 2300/2406 20009KT P6SM VCTS BKN060CB
     FM230400 23005KT P6SM VCSH BKN060 OVC250
     FM231200 32004KT P6SM BKN040 BKN100
     FM231800 35005KT P6SM SCT250=

USA.gov is the U.S. government's official web portal to all federal, state and local government web resources and services.